sensor_id;sensor_type;location;lat;lon;timestamp;P1;durP1;ratioP1;P2;durP2;ratioP2
80778;SDS011;70170;47.856;10.956;2023-12-20T00:02:04;5.80;;;2.20;;
80778;SDS011;70170;47.856;10.956;2023-12-20T00:04:30;2.83;;;2.40;;
80778;SDS011;70170;47.856;10.956;2023-12-20T00:06:55;2.85;;;2.45;;
80778;SDS011;70170;47.856;10.956;2023-12-20T00:09:20;2.25;;;2.05;;
80778;SDS011;70170;47.856;10.956;2023-12-20T00:11:45;2.45;;;2.08;;
80778;SDS011;70170;47.856;10.956;2023-12-20T00:14:11;5.60;;;2.15;;
80778;SDS011;70170;47.856;10.956;2023-12-20T00:16:36;4.22;;;2.40;;
80778;SDS011;70170;47.856;10.956;2023-12-20T00:19:01;9.30;;;2.78;;
80778;SDS011;70170;47.856;10.956;2023-12-20T00:21:27;3.00;;;2.30;;
80778;SDS011;70170;47.856;10.956;2023-12-20T00:23:52;2.88;;;2.15;;
80778;SDS011;70170;47.856;10.956;2023-12-20T00:26:17;2.95;;;2.58;;
80778;SDS011;70170;47.856;10.956;2023-12-20T00:28:42;3.35;;;2.53;;
80778;SDS011;70170;47.856;10.956;2023-12-20T00:31:08;3.03;;;2.28;;
80778;SDS011;70170;47.856;10.956;2023-12-20T00:33:33;4.40;;;1.92;;
80778;SDS011;70170;47.856;10.956;2023-12-20T00:35:58;2.83;;;2.17;;
80778;SDS011;70170;47.856;10.956;2023-12-20T00:38:24;5.15;;;2.47;;
80778;SDS011;70170;47.856;10.956;2023-12-20T00:40:49;2.00;;;1.80;;
80778;SDS011;70170;47.856;10.956;2023-12-20T00:43:14;2.10;;;1.90;;
80778;SDS011;70170;47.856;10.956;2023-12-20T00:45:40;3.25;;;2.40;;
80778;SDS011;70170;47.856;10.956;2023-12-20T00:48:05;2.15;;;1.83;;
80778;SDS011;70170;47.856;10.956;2023-12-20T00:50:31;2.75;;;2.10;;
80778;SDS011;70170;47.856;10.956;2023-12-20T00:52:56;2.45;;;2.03;;
80778;SDS011;70170;47.856;10.956;2023-12-20T00:55:21;4.72;;;1.50;;
80778;SDS011;70170;47.856;10.956;2023-12-20T00:57:46;1.88;;;1.73;;
80778;SDS011;70170;47.856;10.956;2023-12-20T01:00:12;2.90;;;2.28;;
80778;SDS011;70170;47.856;10.956;2023-12-20T01:02:38;2.30;;;2.10;;
80778;SDS011;70170;47.856;10.956;2023-12-20T01:05:03;2.28;;;1.95;;
80778;SDS011;70170;47.856;10.956;2023-12-20T01:07:29;3.13;;;1.67;;
80778;SDS011;70170;47.856;10.956;2023-12-20T01:09:54;2.42;;;1.92;;
80778;SDS011;70170;47.856;10.956;2023-12-20T01:12:19;1.98;;;1.85;;
80778;SDS011;70170;47.856;10.956;2023-12-20T01:14:45;2.10;;;1.70;;
80778;SDS011;70170;47.856;10.956;2023-12-20T01:17:10;2.50;;;1.95;;
80778;SDS011;70170;47.856;10.956;2023-12-20T01:19:37;2.60;;;1.92;;
80778;SDS011;70170;47.856;10.956;2023-12-20T01:22:02;2.00;;;1.67;;
80778;SDS011;70170;47.856;10.956;2023-12-20T01:24:28;1.60;;;1.50;;
80778;SDS011;70170;47.856;10.956;2023-12-20T01:26:53;2.40;;;1.67;;
80778;SDS011;70170;47.856;10.956;2023-12-20T01:29:19;2.15;;;1.42;;
80778;SDS011;70170;47.856;10.956;2023-12-20T01:31:44;3.13;;;1.73;;
80778;SDS011;70170;47.856;10.956;2023-12-20T01:34:09;1.60;;;1.50;;
80778;SDS011;70170;47.856;10.956;2023-12-20T01:36:35;1.55;;;1.33;;
80778;SDS011;70170;47.856;10.956;2023-12-20T01:39:01;1.38;;;1.27;;
80778;SDS011;70170;47.856;10.956;2023-12-20T01:41:26;1.77;;;1.67;;
80778;SDS011;70170;47.856;10.956;2023-12-20T01:43:51;1.65;;;1.55;;
80778;SDS011;70170;47.856;10.956;2023-12-20T01:46:18;1.77;;;1.55;;
80778;SDS011;70170;47.856;10.956;2023-12-20T01:48:44;1.92;;;1.75;;
80778;SDS011;70170;47.856;10.956;2023-12-20T01:51:10;2.03;;;1.48;;
80778;SDS011;70170;47.856;10.956;2023-12-20T01:53:36;3.60;;;1.70;;
80778;SDS011;70170;47.856;10.956;2023-12-20T01:56:01;1.58;;;1.48;;
80778;SDS011;70170;47.856;10.956;2023-12-20T01:58:27;1.30;;;1.20;;
80778;SDS011;70170;47.856;10.956;2023-12-20T02:00:53;2.60;;;1.75;;
80778;SDS011;70170;47.856;10.956;2023-12-20T02:03:20;1.40;;;1.30;;
80778;SDS011;70170;47.856;10.956;2023-12-20T02:05:46;1.58;;;1.48;;
80778;SDS011;70170;47.856;10.956;2023-12-20T02:08:12;3.80;;;1.40;;
80778;SDS011;70170;47.856;10.956;2023-12-20T02:10:38;1.40;;;1.30;;
80778;SDS011;70170;47.856;10.956;2023-12-20T02:13:05;1.48;;;1.38;;
80778;SDS011;70170;47.856;10.956;2023-12-20T02:15:30;5.88;;;1.40;;
80778;SDS011;70170;47.856;10.956;2023-12-20T02:17:56;1.15;;;1.05;;
80778;SDS011;70170;47.856;10.956;2023-12-20T02:20:21;1.42;;;1.20;;
80778;SDS011;70170;47.856;10.956;2023-12-20T02:22:46;0.93;;;0.93;;
80778;SDS011;70170;47.856;10.956;2023-12-20T02:25:12;1.55;;;1.45;;
80778;SDS011;70170;47.856;10.956;2023-12-20T02:27:37;1.70;;;1.60;;
80778;SDS011;70170;47.856;10.956;2023-12-20T02:30:04;1.48;;;1.38;;
80778;SDS011;70170;47.856;10.956;2023-12-20T02:32:30;1.73;;;1.08;;
80778;SDS011;70170;47.856;10.956;2023-12-20T02:34:56;1.38;;;1.27;;
80778;SDS011;70170;47.856;10.956;2023-12-20T02:37:21;1.50;;;1.40;;
80778;SDS011;70170;47.856;10.956;2023-12-20T02:39:47;1.42;;;1.33;;
80778;SDS011;70170;47.856;10.956;2023-12-20T02:42:12;1.70;;;1.30;;
80778;SDS011;70170;47.856;10.956;2023-12-20T02:44:37;1.33;;;1.30;;
80778;SDS011;70170;47.856;10.956;2023-12-20T02:47:03;1.73;;;1.40;;
80778;SDS011;70170;47.856;10.956;2023-12-20T02:49:28;1.67;;;1.33;;
80778;SDS011;70170;47.856;10.956;2023-12-20T02:51:53;4.57;;;1.50;;
80778;SDS011;70170;47.856;10.956;2023-12-20T02:54:19;4.43;;;1.77;;
80778;SDS011;70170;47.856;10.956;2023-12-20T02:56:44;1.55;;;1.30;;
80778;SDS011;70170;47.856;10.956;2023-12-20T02:59:09;1.73;;;1.38;;
80778;SDS011;70170;47.856;10.956;2023-12-20T03:01:35;1.60;;;1.20;;
80778;SDS011;70170;47.856;10.956;2023-12-20T03:04:02;1.45;;;1.20;;
80778;SDS011;70170;47.856;10.956;2023-12-20T03:06:28;1.00;;;1.00;;
80778;SDS011;70170;47.856;10.956;2023-12-20T03:08:53;1.10;;;1.10;;
80778;SDS011;70170;47.856;10.956;2023-12-20T03:11:18;1.23;;;1.13;;
80778;SDS011;70170;47.856;10.956;2023-12-20T03:13:44;1.30;;;1.20;;
80778;SDS011;70170;47.856;10.956;2023-12-20T03:16:12;1.10;;;1.10;;
80778;SDS011;70170;47.856;10.956;2023-12-20T03:18:38;2.22;;;1.40;;
80778;SDS011;70170;47.856;10.956;2023-12-20T03:21:04;1.40;;;1.30;;
80778;SDS011;70170;47.856;10.956;2023-12-20T03:23:30;1.10;;;1.10;;
80778;SDS011;70170;47.856;10.956;2023-12-20T03:25:57;1.30;;;1.20;;
80778;SDS011;70170;47.856;10.956;2023-12-20T03:28:22;1.67;;;1.25;;
80778;SDS011;70170;47.856;10.956;2023-12-20T03:30:48;2.00;;;1.38;;
80778;SDS011;70170;47.856;10.956;2023-12-20T03:33:13;1.38;;;1.27;;
80778;SDS011;70170;47.856;10.956;2023-12-20T03:35:39;1.33;;;1.23;;
80778;SDS011;70170;47.856;10.956;2023-12-20T03:38:04;1.23;;;1.13;;
80778;SDS011;70170;47.856;10.956;2023-12-20T03:40:29;1.50;;;1.40;;
80778;SDS011;70170;47.856;10.956;2023-12-20T03:42:55;1.73;;;1.17;;
80778;SDS011;70170;47.856;10.956;2023-12-20T03:45:20;1.42;;;1.33;;
80778;SDS011;70170;47.856;10.956;2023-12-20T03:47:45;1.40;;;1.30;;
80778;SDS011;70170;47.856;10.956;2023-12-20T03:50:10;2.78;;;1.85;;
80778;SDS011;70170;47.856;10.956;2023-12-20T03:52:36;1.73;;;1.52;;
80778;SDS011;70170;47.856;10.956;2023-12-20T03:55:01;1.83;;;1.35;;
80778;SDS011;70170;47.856;10.956;2023-12-20T03:57:26;2.13;;;1.45;;
80778;SDS011;70170;47.856;10.956;2023-12-20T03:59:52;1.27;;;1.17;;
80778;SDS011;70170;47.856;10.956;2023-12-20T04:02:17;1.23;;;1.17;;
80778;SDS011;70170;47.856;10.956;2023-12-20T04:04:43;1.95;;;1.35;;
80778;SDS011;70170;47.856;10.956;2023-12-20T04:07:08;1.67;;;1.58;;
80778;SDS011;70170;47.856;10.956;2023-12-20T04:09:33;2.33;;;1.40;;
80778;SDS011;70170;47.856;10.956;2023-12-20T04:11:59;1.73;;;1.63;;
80778;SDS011;70170;47.856;10.956;2023-12-20T04:14:24;3.85;;;1.80;;
80778;SDS011;70170;47.856;10.956;2023-12-20T04:16:49;2.53;;;2.03;;
80778;SDS011;70170;47.856;10.956;2023-12-20T04:19:15;1.83;;;1.38;;
80778;SDS011;70170;47.856;10.956;2023-12-20T04:21:40;2.85;;;1.98;;
80778;SDS011;70170;47.856;10.956;2023-12-20T04:24:05;4.68;;;2.28;;
80778;SDS011;70170;47.856;10.956;2023-12-20T04:26:31;2.42;;;2.22;;
80778;SDS011;70170;47.856;10.956;2023-12-20T04:28:56;3.35;;;2.17;;
80778;SDS011;70170;47.856;10.956;2023-12-20T04:31:21;2.17;;;2.00;;
80778;SDS011;70170;47.856;10.956;2023-12-20T04:33:47;1.83;;;1.48;;
80778;SDS011;70170;47.856;10.956;2023-12-20T04:36:12;1.70;;;1.60;;
80778;SDS011;70170;47.856;10.956;2023-12-20T04:38:38;1.50;;;1.40;;
80778;SDS011;70170;47.856;10.956;2023-12-20T04:41:03;1.50;;;1.40;;
80778;SDS011;70170;47.856;10.956;2023-12-20T04:43:28;1.95;;;1.48;;
80778;SDS011;70170;47.856;10.956;2023-12-20T04:45:54;4.65;;;1.60;;
80778;SDS011;70170;47.856;10.956;2023-12-20T04:48:20;1.70;;;1.60;;
80778;SDS011;70170;47.856;10.956;2023-12-20T04:50:45;2.40;;;1.88;;
80778;SDS011;70170;47.856;10.956;2023-12-20T04:53:10;7.38;;;1.88;;
80778;SDS011;70170;47.856;10.956;2023-12-20T04:55:36;2.47;;;2.03;;
80778;SDS011;70170;47.856;10.956;2023-12-20T04:58:01;2.75;;;2.05;;
80778;SDS011;70170;47.856;10.956;2023-12-20T05:00:26;2.13;;;1.65;;
80778;SDS011;70170;47.856;10.956;2023-12-20T05:02:52;1.77;;;1.67;;
80778;SDS011;70170;47.856;10.956;2023-12-20T05:05:17;1.88;;;1.60;;
80778;SDS011;70170;47.856;10.956;2023-12-20T05:07:43;2.50;;;1.73;;
80778;SDS011;70170;47.856;10.956;2023-12-20T05:10:08;2.17;;;2.00;;
80778;SDS011;70170;47.856;10.956;2023-12-20T05:12:34;1.73;;;1.63;;
80778;SDS011;70170;47.856;10.956;2023-12-20T05:15:00;3.75;;;1.45;;
80778;SDS011;70170;47.856;10.956;2023-12-20T05:17:25;1.70;;;1.60;;
80778;SDS011;70170;47.856;10.956;2023-12-20T05:19:51;4.13;;;2.20;;
80778;SDS011;70170;47.856;10.956;2023-12-20T05:22:16;2.65;;;2.28;;
80778;SDS011;70170;47.856;10.956;2023-12-20T05:24:42;2.35;;;1.90;;
80778;SDS011;70170;47.856;10.956;2023-12-20T05:27:07;2.20;;;2.00;;
80778;SDS011;70170;47.856;10.956;2023-12-20T05:29:33;4.13;;;2.58;;
80778;SDS011;70170;47.856;10.956;2023-12-20T05:31:58;3.08;;;2.20;;
80778;SDS011;70170;47.856;10.956;2023-12-20T05:34:23;2.92;;;2.20;;
80778;SDS011;70170;47.856;10.956;2023-12-20T05:36:49;2.30;;;2.05;;
80778;SDS011;70170;47.856;10.956;2023-12-20T05:39:14;5.72;;;2.35;;
80778;SDS011;70170;47.856;10.956;2023-12-20T05:41:39;3.13;;;1.85;;
80778;SDS011;70170;47.856;10.956;2023-12-20T05:44:05;2.50;;;2.30;;
80778;SDS011;70170;47.856;10.956;2023-12-20T05:46:30;2.38;;;1.65;;
80778;SDS011;70170;47.856;10.956;2023-12-20T05:48:55;2.15;;;2.05;;
80778;SDS011;70170;47.856;10.956;2023-12-20T05:51:20;1.85;;;1.75;;
80778;SDS011;70170;47.856;10.956;2023-12-20T05:53:46;1.58;;;1.48;;
80778;SDS011;70170;47.856;10.956;2023-12-20T05:56:11;1.52;;;1.42;;
80778;SDS011;70170;47.856;10.956;2023-12-20T05:58:38;1.83;;;1.73;;
80778;SDS011;70170;47.856;10.956;2023-12-20T06:01:04;1.77;;;1.67;;
80778;SDS011;70170;47.856;10.956;2023-12-20T06:03:30;1.92;;;1.50;;
80778;SDS011;70170;47.856;10.956;2023-12-20T06:05:55;2.50;;;1.83;;
80778;SDS011;70170;47.856;10.956;2023-12-20T06:08:20;1.90;;;1.80;;
80778;SDS011;70170;47.856;10.956;2023-12-20T06:10:46;1.60;;;1.50;;
80778;SDS011;70170;47.856;10.956;2023-12-20T06:13:11;1.75;;;1.65;;
80778;SDS011;70170;47.856;10.956;2023-12-20T06:15:38;1.35;;;1.27;;
80778;SDS011;70170;47.856;10.956;2023-12-20T06:18:03;1.70;;;1.60;;
80778;SDS011;70170;47.856;10.956;2023-12-20T06:20:29;1.70;;;1.60;;
80778;SDS011;70170;47.856;10.956;2023-12-20T06:22:54;1.88;;;1.73;;
80778;SDS011;70170;47.856;10.956;2023-12-20T06:25:20;1.52;;;1.42;;
80778;SDS011;70170;47.856;10.956;2023-12-20T06:27:45;1.77;;;1.52;;
80778;SDS011;70170;47.856;10.956;2023-12-20T06:30:10;1.42;;;1.30;;
80778;SDS011;70170;47.856;10.956;2023-12-20T06:32:42;1.40;;;1.25;;
80778;SDS011;70170;47.856;10.956;2023-12-20T06:35:08;1.90;;;1.80;;
80778;SDS011;70170;47.856;10.956;2023-12-20T06:37:33;1.70;;;1.58;;
80778;SDS011;70170;47.856;10.956;2023-12-20T06:39:59;2.13;;;1.92;;
80778;SDS011;70170;47.856;10.956;2023-12-20T06:42:24;1.60;;;1.50;;
80778;SDS011;70170;47.856;10.956;2023-12-20T06:44:49;1.90;;;1.80;;
80778;SDS011;70170;47.856;10.956;2023-12-20T06:47:15;1.00;;;1.00;;
80778;SDS011;70170;47.856;10.956;2023-12-20T06:49:40;1.80;;;1.65;;
80778;SDS011;70170;47.856;10.956;2023-12-20T06:52:05;2.05;;;1.75;;
80778;SDS011;70170;47.856;10.956;2023-12-20T06:54:31;1.95;;;1.60;;
80778;SDS011;70170;47.856;10.956;2023-12-20T06:56:56;2.28;;;2.00;;
80778;SDS011;70170;47.856;10.956;2023-12-20T06:59:21;2.20;;;1.92;;
80778;SDS011;70170;47.856;10.956;2023-12-20T07:01:47;3.30;;;2.58;;
80778;SDS011;70170;47.856;10.956;2023-12-20T07:04:15;1.77;;;1.67;;
80778;SDS011;70170;47.856;10.956;2023-12-20T07:06:41;1.80;;;1.70;;
80778;SDS011;70170;47.856;10.956;2023-12-20T07:09:06;2.58;;;2.38;;
80778;SDS011;70170;47.856;10.956;2023-12-20T07:11:32;1.75;;;1.52;;
80778;SDS011;70170;47.856;10.956;2023-12-20T07:13:57;1.45;;;1.40;;
80778;SDS011;70170;47.856;10.956;2023-12-20T07:16:22;2.08;;;1.40;;
80778;SDS011;70170;47.856;10.956;2023-12-20T07:18:48;1.70;;;1.60;;
80778;SDS011;70170;47.856;10.956;2023-12-20T07:21:13;1.50;;;1.40;;
80778;SDS011;70170;47.856;10.956;2023-12-20T07:23:38;1.65;;;1.50;;
80778;SDS011;70170;47.856;10.956;2023-12-20T07:26:03;1.33;;;1.23;;
80778;SDS011;70170;47.856;10.956;2023-12-20T07:28:29;1.50;;;1.40;;
80778;SDS011;70170;47.856;10.956;2023-12-20T07:30:54;1.35;;;1.30;;
80778;SDS011;70170;47.856;10.956;2023-12-20T07:33:20;1.83;;;1.73;;
80778;SDS011;70170;47.856;10.956;2023-12-20T07:35:45;2.38;;;1.30;;
80778;SDS011;70170;47.856;10.956;2023-12-20T07:38:10;1.30;;;1.20;;
80778;SDS011;70170;47.856;10.956;2023-12-20T07:40:37;1.40;;;1.30;;
80778;SDS011;70170;47.856;10.956;2023-12-20T07:43:03;1.25;;;1.25;;
80778;SDS011;70170;47.856;10.956;2023-12-20T07:45:28;1.27;;;1.27;;
80778;SDS011;70170;47.856;10.956;2023-12-20T07:47:53;1.95;;;1.27;;
80778;SDS011;70170;47.856;10.956;2023-12-20T07:50:19;1.35;;;1.25;;
80778;SDS011;70170;47.856;10.956;2023-12-20T07:52:44;1.80;;;1.70;;
80778;SDS011;70170;47.856;10.956;2023-12-20T07:55:09;1.85;;;1.13;;
80778;SDS011;70170;47.856;10.956;2023-12-20T07:57:35;1.20;;;1.13;;
80778;SDS011;70170;47.856;10.956;2023-12-20T08:00:00;1.33;;;1.23;;
80778;SDS011;70170;47.856;10.956;2023-12-20T08:02:25;1.80;;;1.05;;
80778;SDS011;70170;47.856;10.956;2023-12-20T08:04:51;1.00;;;1.00;;
80778;SDS011;70170;47.856;10.956;2023-12-20T08:07:16;1.42;;;1.13;;
80778;SDS011;70170;47.856;10.956;2023-12-20T08:09:41;1.17;;;1.08;;
80778;SDS011;70170;47.856;10.956;2023-12-20T08:12:08;0.82;;;0.82;;
80778;SDS011;70170;47.856;10.956;2023-12-20T08:14:34;0.70;;;0.70;;
80778;SDS011;70170;47.856;10.956;2023-12-20T08:17:00;0.98;;;0.98;;
80778;SDS011;70170;47.856;10.956;2023-12-20T08:19:25;0.82;;;0.82;;
80778;SDS011;70170;47.856;10.956;2023-12-20T08:21:51;0.98;;;0.98;;
80778;SDS011;70170;47.856;10.956;2023-12-20T08:24:16;0.70;;;0.70;;
80778;SDS011;70170;47.856;10.956;2023-12-20T08:26:41;0.70;;;0.70;;
80778;SDS011;70170;47.856;10.956;2023-12-20T08:29:06;0.80;;;0.80;;
80778;SDS011;70170;47.856;10.956;2023-12-20T08:31:32;3.55;;;0.80;;
80778;SDS011;70170;47.856;10.956;2023-12-20T08:33:57;0.80;;;0.80;;
80778;SDS011;70170;47.856;10.956;2023-12-20T08:36:22;0.90;;;0.90;;
80778;SDS011;70170;47.856;10.956;2023-12-20T08:38:48;0.75;;;0.70;;
80778;SDS011;70170;47.856;10.956;2023-12-20T08:41:14;0.80;;;0.80;;
80778;SDS011;70170;47.856;10.956;2023-12-20T08:43:39;0.98;;;0.98;;
80778;SDS011;70170;47.856;10.956;2023-12-20T08:46:05;1.85;;;0.70;;
80778;SDS011;70170;47.856;10.956;2023-12-20T08:48:31;1.38;;;0.90;;
80778;SDS011;70170;47.856;10.956;2023-12-20T08:50:56;0.90;;;0.90;;
80778;SDS011;70170;47.856;10.956;2023-12-20T08:53:21;0.70;;;0.70;;
80778;SDS011;70170;47.856;10.956;2023-12-20T08:55:47;0.70;;;0.70;;
80778;SDS011;70170;47.856;10.956;2023-12-20T08:58:12;0.68;;;0.68;;
80778;SDS011;70170;47.856;10.956;2023-12-20T09:00:38;1.05;;;0.93;;
80778;SDS011;70170;47.856;10.956;2023-12-20T09:03:03;0.60;;;0.60;;
80778;SDS011;70170;47.856;10.956;2023-12-20T09:05:29;0.68;;;0.68;;
80778;SDS011;70170;47.856;10.956;2023-12-20T09:07:55;0.70;;;0.70;;
80778;SDS011;70170;47.856;10.956;2023-12-20T09:10:20;1.08;;;0.80;;
80778;SDS011;70170;47.856;10.956;2023-12-20T09:12:50;0.60;;;0.60;;
80778;SDS011;70170;47.856;10.956;2023-12-20T09:15:19;0.50;;;0.50;;
80778;SDS011;70170;47.856;10.956;2023-12-20T09:17:44;0.50;;;0.50;;
80778;SDS011;70170;47.856;10.956;2023-12-20T09:20:10;1.40;;;0.73;;
80778;SDS011;70170;47.856;10.956;2023-12-20T09:22:35;0.57;;;0.57;;
80778;SDS011;70170;47.856;10.956;2023-12-20T09:25:00;0.75;;;0.75;;
80778;SDS011;70170;47.856;10.956;2023-12-20T09:27:27;0.50;;;0.50;;
80778;SDS011;70170;47.856;10.956;2023-12-20T09:29:52;0.60;;;0.60;;
80778;SDS011;70170;47.856;10.956;2023-12-20T09:32:18;0.85;;;0.50;;
80778;SDS011;70170;47.856;10.956;2023-12-20T09:34:45;0.60;;;0.60;;
80778;SDS011;70170;47.856;10.956;2023-12-20T09:37:10;0.50;;;0.50;;
80778;SDS011;70170;47.856;10.956;2023-12-20T09:39:35;0.70;;;0.70;;
80778;SDS011;70170;47.856;10.956;2023-12-20T09:42:01;0.60;;;0.60;;
80778;SDS011;70170;47.856;10.956;2023-12-20T09:44:28;0.50;;;0.50;;
80778;SDS011;70170;47.856;10.956;2023-12-20T09:46:54;0.77;;;0.77;;
80778;SDS011;70170;47.856;10.956;2023-12-20T09:49:20;0.82;;;0.70;;
80778;SDS011;70170;47.856;10.956;2023-12-20T09:51:47;0.57;;;0.57;;
80778;SDS011;70170;47.856;10.956;2023-12-20T09:54:13;0.60;;;0.60;;
80778;SDS011;70170;47.856;10.956;2023-12-20T09:56:40;0.50;;;0.50;;
80778;SDS011;70170;47.856;10.956;2023-12-20T09:59:05;0.70;;;0.70;;
80778;SDS011;70170;47.856;10.956;2023-12-20T10:01:31;0.50;;;0.50;;
80778;SDS011;70170;47.856;10.956;2023-12-20T10:03:57;0.93;;;0.73;;
80778;SDS011;70170;47.856;10.956;2023-12-20T10:06:25;0.50;;;0.50;;
80778;SDS011;70170;47.856;10.956;2023-12-20T10:08:50;0.70;;;0.70;;
80778;SDS011;70170;47.856;10.956;2023-12-20T10:11:15;0.93;;;0.80;;
80778;SDS011;70170;47.856;10.956;2023-12-20T10:13:42;0.70;;;0.70;;
80778;SDS011;70170;47.856;10.956;2023-12-20T10:16:08;0.70;;;0.70;;
80778;SDS011;70170;47.856;10.956;2023-12-20T10:18:33;0.70;;;0.70;;
80778;SDS011;70170;47.856;10.956;2023-12-20T10:20:59;0.60;;;0.60;;
80778;SDS011;70170;47.856;10.956;2023-12-20T10:23:25;0.68;;;0.68;;
80778;SDS011;70170;47.856;10.956;2023-12-20T10:26:00;0.77;;;0.77;;
80778;SDS011;70170;47.856;10.956;2023-12-20T10:28:25;0.70;;;0.70;;
80778;SDS011;70170;47.856;10.956;2023-12-20T10:30:52;2.75;;;0.70;;
80778;SDS011;70170;47.856;10.956;2023-12-20T10:33:26;0.60;;;0.60;;
80778;SDS011;70170;47.856;10.956;2023-12-20T10:35:57;0.75;;;0.70;;
80778;SDS011;70170;47.856;10.956;2023-12-20T10:38:22;2.38;;;0.70;;
80778;SDS011;70170;47.856;10.956;2023-12-20T10:40:48;0.63;;;0.63;;
80778;SDS011;70170;47.856;10.956;2023-12-20T10:43:17;0.60;;;0.60;;
80778;SDS011;70170;47.856;10.956;2023-12-20T10:45:43;0.70;;;0.70;;
80778;SDS011;70170;47.856;10.956;2023-12-20T10:48:10;0.60;;;0.60;;
80778;SDS011;70170;47.856;10.956;2023-12-20T10:50:37;0.68;;;0.68;;
80778;SDS011;70170;47.856;10.956;2023-12-20T10:53:06;0.82;;;0.82;;
80778;SDS011;70170;47.856;10.956;2023-12-20T10:55:31;1.17;;;0.77;;
80778;SDS011;70170;47.856;10.956;2023-12-20T10:58:01;2.30;;;0.98;;
80778;SDS011;70170;47.856;10.956;2023-12-20T11:00:30;0.73;;;0.70;;
80778;SDS011;70170;47.856;10.956;2023-12-20T11:02:57;0.52;;;0.52;;
80778;SDS011;70170;47.856;10.956;2023-12-20T11:05:43;0.60;;;0.60;;
80778;SDS011;70170;47.856;10.956;2023-12-20T11:11:35;0.77;;;0.77;;
80778;SDS011;70170;47.856;10.956;2023-12-20T11:14:06;2.38;;;1.02;;
80778;SDS011;70170;47.856;10.956;2023-12-20T11:16:37;0.73;;;0.73;;
80778;SDS011;70170;47.856;10.956;2023-12-20T11:19:06;0.88;;;0.88;;
80778;SDS011;70170;47.856;10.956;2023-12-20T11:21:32;0.80;;;0.80;;
80778;SDS011;70170;47.856;10.956;2023-12-20T11:23:57;0.82;;;0.82;;
80778;SDS011;70170;47.856;10.956;2023-12-20T11:26:27;0.90;;;0.90;;
80778;SDS011;70170;47.856;10.956;2023-12-20T11:28:53;0.88;;;0.88;;
80778;SDS011;70170;47.856;10.956;2023-12-20T11:31:19;0.95;;;0.93;;
80778;SDS011;70170;47.856;10.956;2023-12-20T11:33:44;1.48;;;0.80;;
80778;SDS011;70170;47.856;10.956;2023-12-20T11:36:13;0.68;;;0.68;;
80778;SDS011;70170;47.856;10.956;2023-12-20T11:38:53;0.70;;;0.70;;
80778;SDS011;70170;47.856;10.956;2023-12-20T11:41:22;0.93;;;0.93;;
80778;SDS011;70170;47.856;10.956;2023-12-20T11:43:49;1.08;;;1.08;;
80778;SDS011;70170;47.856;10.956;2023-12-20T11:46:18;0.90;;;0.90;;
80778;SDS011;70170;47.856;10.956;2023-12-20T11:48:43;1.70;;;1.17;;
80778;SDS011;70170;47.856;10.956;2023-12-20T11:51:10;0.95;;;0.95;;
80778;SDS011;70170;47.856;10.956;2023-12-20T11:53:36;0.80;;;0.80;;
80778;SDS011;70170;47.856;10.956;2023-12-20T11:56:02;0.77;;;0.77;;
80778;SDS011;70170;47.856;10.956;2023-12-20T11:58:28;1.02;;;1.02;;
80778;SDS011;70170;47.856;10.956;2023-12-20T12:00:54;1.08;;;1.08;;
80778;SDS011;70170;47.856;10.956;2023-12-20T12:03:20;0.90;;;0.90;;
80778;SDS011;70170;47.856;10.956;2023-12-20T12:05:46;1.27;;;1.17;;
80778;SDS011;70170;47.856;10.956;2023-12-20T12:08:12;0.82;;;0.82;;
80778;SDS011;70170;47.856;10.956;2023-12-20T12:10:38;0.90;;;0.90;;
80778;SDS011;70170;47.856;10.956;2023-12-20T12:13:03;0.82;;;0.80;;
80778;SDS011;70170;47.856;10.956;2023-12-20T12:15:29;1.15;;;1.10;;
80778;SDS011;70170;47.856;10.956;2023-12-20T12:17:54;0.80;;;0.80;;
80778;SDS011;70170;47.856;10.956;2023-12-20T12:20:24;2.25;;;1.33;;
80778;SDS011;70170;47.856;10.956;2023-12-20T12:22:59;1.17;;;1.13;;
80778;SDS011;70170;47.856;10.956;2023-12-20T12:25:29;1.25;;;1.25;;
80778;SDS011;70170;47.856;10.956;2023-12-20T12:27:56;1.40;;;1.30;;
80778;SDS011;70170;47.856;10.956;2023-12-20T12:30:21;1.60;;;1.50;;
80778;SDS011;70170;47.856;10.956;2023-12-20T12:32:47;1.33;;;1.23;;
80778;SDS011;70170;47.856;10.956;2023-12-20T12:35:13;1.55;;;1.45;;
80778;SDS011;70170;47.856;10.956;2023-12-20T12:37:39;1.05;;;1.05;;
80778;SDS011;70170;47.856;10.956;2023-12-20T12:40:06;0.95;;;0.95;;
80778;SDS011;70170;47.856;10.956;2023-12-20T12:42:36;3.90;;;1.50;;
80778;SDS011;70170;47.856;10.956;2023-12-20T12:45:01;1.17;;;1.17;;
80778;SDS011;70170;47.856;10.956;2023-12-20T12:47:27;1.65;;;1.55;;
80778;SDS011;70170;47.856;10.956;2023-12-20T12:49:52;1.50;;;1.40;;
80778;SDS011;70170;47.856;10.956;2023-12-20T12:52:18;1.45;;;1.35;;
80778;SDS011;70170;47.856;10.956;2023-12-20T12:54:43;1.10;;;1.10;;
80778;SDS011;70170;47.856;10.956;2023-12-20T12:57:11;2.25;;;1.50;;
80778;SDS011;70170;47.856;10.956;2023-12-20T12:59:37;1.58;;;1.48;;
80778;SDS011;70170;47.856;10.956;2023-12-20T13:02:02;1.58;;;1.48;;
80778;SDS011;70170;47.856;10.956;2023-12-20T13:04:27;2.63;;;2.05;;
80778;SDS011;70170;47.856;10.956;2023-12-20T13:06:53;3.33;;;2.28;;
80778;SDS011;70170;47.856;10.956;2023-12-20T13:09:18;1.65;;;1.55;;
80778;SDS011;70170;47.856;10.956;2023-12-20T13:11:44;2.97;;;2.22;;
80778;SDS011;70170;47.856;10.956;2023-12-20T13:14:10;1.92;;;1.77;;
80778;SDS011;70170;47.856;10.956;2023-12-20T13:16:40;2.38;;;2.03;;
80778;SDS011;70170;47.856;10.956;2023-12-20T13:19:06;1.80;;;1.70;;
80778;SDS011;70170;47.856;10.956;2023-12-20T13:21:31;1.92;;;1.75;;
80778;SDS011;70170;47.856;10.956;2023-12-20T13:23:56;2.15;;;1.45;;
80778;SDS011;70170;47.856;10.956;2023-12-20T13:26:22;1.33;;;1.30;;
80778;SDS011;70170;47.856;10.956;2023-12-20T13:28:47;0.80;;;0.80;;
80778;SDS011;70170;47.856;10.956;2023-12-20T13:31:12;1.40;;;1.30;;
80778;SDS011;70170;47.856;10.956;2023-12-20T13:33:38;1.15;;;1.08;;
80778;SDS011;70170;47.856;10.956;2023-12-20T13:36:04;0.95;;;0.95;;
80778;SDS011;70170;47.856;10.956;2023-12-20T13:38:30;1.55;;;1.45;;
80778;SDS011;70170;47.856;10.956;2023-12-20T13:40:55;1.38;;;1.27;;
80778;SDS011;70170;47.856;10.956;2023-12-20T13:43:20;1.50;;;1.40;;
80778;SDS011;70170;47.856;10.956;2023-12-20T13:45:47;1.13;;;1.10;;
80778;SDS011;70170;47.856;10.956;2023-12-20T13:48:13;1.58;;;1.45;;
80778;SDS011;70170;47.856;10.956;2023-12-20T13:50:38;1.35;;;1.25;;
80778;SDS011;70170;47.856;10.956;2023-12-20T13:53:03;1.52;;;1.42;;
80778;SDS011;70170;47.856;10.956;2023-12-20T13:55:29;2.33;;;1.50;;
80778;SDS011;70170;47.856;10.956;2023-12-20T13:57:55;1.60;;;1.50;;
80778;SDS011;70170;47.856;10.956;2023-12-20T14:00:21;2.55;;;1.45;;
80778;SDS011;70170;47.856;10.956;2023-12-20T14:02:46;1.52;;;1.42;;
80778;SDS011;70170;47.856;10.956;2023-12-20T14:05:12;1.50;;;1.40;;
80778;SDS011;70170;47.856;10.956;2023-12-20T14:07:39;1.80;;;1.65;;
80778;SDS011;70170;47.856;10.956;2023-12-20T14:10:04;1.55;;;1.42;;
80778;SDS011;70170;47.856;10.956;2023-12-20T14:12:31;1.38;;;1.17;;
80778;SDS011;70170;47.856;10.956;2023-12-20T14:15:00;1.58;;;1.48;;
80778;SDS011;70170;47.856;10.956;2023-12-20T14:17:26;1.38;;;1.20;;
80778;SDS011;70170;47.856;10.956;2023-12-20T14:19:51;1.50;;;1.40;;
80778;SDS011;70170;47.856;10.956;2023-12-20T14:22:16;0.80;;;0.75;;
80778;SDS011;70170;47.856;10.956;2023-12-20T14:24:42;2.10;;;1.90;;
80778;SDS011;70170;47.856;10.956;2023-12-20T14:27:08;1.67;;;1.58;;
80778;SDS011;70170;47.856;10.956;2023-12-20T14:29:34;4.90;;;3.65;;